Terminal Aerodrome Forecast
Issued by NWS

Home | Current Version | Previous Version | Text Only | Print | Product List | Glossary On
Versions: 1 2 3 4 5 6 7 8 9 10 11 12 13 14 15
000
FTUS41 KBTV 191142
TAFRUT
TAF
KRUT 191142Z 1912/2012 12005KT 6SM BR OVC020
     FM191600 12007KT P6SM SCT025 SCT110
     FM192000 10007KT P6SM BKN080
     FM200100 12005KT P6SM VCSH BKN090
     FM200500 12006KT 6SM BR VCSH BKN025=

USA.gov is the U.S. government's official web portal to all federal, state and local government web resources and services.